Time;durP1;ratioP1;P1;durP2;ratioP2;P2;SDS_P1;SDS_P2;PMS_P1;PMS_P2;Temp;Humidity;BMP_temperature;BMP_pressure;BME280_temperature;BME280_humidity;BME280_pressure;Samples;Min_cycle;Max_cycle;Signal;HPM_P1;HPM_P2
2021/01/01 00:02:24;;;;;;;202.43;115.10;;;3.00;99.90;;;-146.47;100.00;66290.13;4903552;29;20617;-82
2021/01/01 00:05:15;;;;;;;189.63;107.63;;;3.00;99.90;;;-146.47;100.00;66290.13;4902112;29;20240;-81
2021/01/01 00:08:00;;;;;;;178.10;97.53;;;2.90;99.90;;;-146.47;100.00;66290.13;4903250;29;20287;-81
2021/01/01 00:10:45;;;;;;;167.40;92.37;;;2.90;99.90;;;-146.47;100.00;66290.13;4894152;29;20280;-81
2021/01/01 00:13:30;;;;;;;166.87;92.53;;;2.80;99.90;;;-146.47;100.00;66290.13;4903668;29;20732;-80
2021/01/01 00:16:16;;;;;;;159.13;87.40;;;2.80;99.90;;;-146.47;100.00;66290.13;4903360;29;20233;-81
2021/01/01 00:19:01;;;;;;;175.33;93.67;;;2.70;99.90;;;-146.47;100.00;66290.13;4891918;29;20207;-82
2021/01/01 00:21:47;;;;;;;179.13;94.97;;;2.70;99.90;;;-146.47;100.00;66290.13;4903873;29;20216;-81
2021/01/01 00:24:32;;;;;;;177.40;92.00;;;2.70;99.90;;;-146.47;100.00;66290.13;4905610;29;20220;-82
2021/01/01 00:27:18;;;;;;;176.23;93.87;;;2.70;99.90;;;-146.47;100.00;66290.13;4906968;29;20272;-82
2021/01/01 00:30:06;;;;;;;177.53;94.20;;;2.70;99.90;;;-146.47;100.00;66290.13;4915869;29;20233;-81
2021/01/01 00:32:51;;;;;;;173.87;88.67;;;2.70;99.90;;;-146.47;100.00;66290.13;4913242;29;20225;-81
2021/01/01 00:35:37;;;;;;;176.53;91.73;;;2.60;99.90;;;-146.47;100.00;66290.13;4914934;29;20236;-81
2021/01/01 00:38:23;;;;;;;167.53;87.83;;;2.60;99.90;;;-146.47;100.00;66290.13;4914052;29;20220;-80
2021/01/01 00:41:08;;;;;;;158.60;82.30;;;2.60;99.90;;;-146.47;100.00;66290.13;4906185;29;20204;-82
2021/01/01 00:43:54;;;;;;;181.63;86.40;;;2.60;99.90;;;-146.47;100.00;66290.13;4905969;29;20304;-82
2021/01/01 00:46:40;;;;;;;172.53;87.33;;;2.60;99.90;;;-146.47;100.00;66290.13;4906922;29;20265;-81
2021/01/01 00:49:25;;;;;;;160.27;84.53;;;2.60;99.90;;;-146.47;100.00;66290.13;4922632;29;20211;-80
2021/01/01 00:52:10;;;;;;;169.00;87.27;;;2.60;99.90;;;-146.47;100.00;66290.13;4923474;29;20264;-80
2021/01/01 00:54:56;;;;;;;190.70;96.30;;;2.60;99.90;;;-146.47;100.00;66290.13;4922262;29;20245;-80
2021/01/01 00:57:41;;;;;;;189.93;100.10;;;2.50;99.90;;;-146.47;100.00;66290.13;4921976;29;20259;-80
2021/01/01 01:00:27;;;;;;;196.30;100.97;;;2.50;99.90;;;-146.47;100.00;66290.13;4915106;29;20257;-82
2021/01/01 01:03:12;;;;;;;206.87;102.70;;;2.50;99.90;;;-146.47;100.00;66290.13;4911196;29;20253;-82
2021/01/01 01:05:57;;;;;;;204.43;104.47;;;2.50;99.90;;;-146.47;100.00;66290.13;4904375;29;20291;-81
2021/01/01 01:08:43;;;;;;;232.17;114.90;;;2.50;99.90;;;-146.47;100.00;66290.13;4892579;29;20211;-83
2021/01/01 01:11:30;;;;;;;231.47;114.97;;;2.50;99.90;;;-146.47;100.00;66290.13;4905108;29;20276;-81
2021/01/01 01:14:15;;;;;;;242.97;122.17;;;2.50;99.90;;;-146.47;100.00;66290.13;4905243;29;20244;-82
2021/01/01 01:17:01;;;;;;;237.77;120.63;;;2.50;99.90;;;-146.47;100.00;66290.13;4901092;29;20260;-82
2021/01/01 01:19:46;;;;;;;238.13;118.70;;;2.50;99.90;;;-146.47;100.00;66290.13;4899047;29;20219;-81
2021/01/01 01:22:31;;;;;;;248.60;122.70;;;2.50;99.90;;;-146.47;100.00;66290.13;4894144;29;20269;-83
2021/01/01 01:25:16;;;;;;;253.33;126.30;;;2.40;99.90;;;-146.47;100.00;66290.13;4904122;29;20324;-81
2021/01/01 01:28:03;;;;;;;262.83;127.73;;;2.50;99.90;;;-146.47;100.00;66290.13;4903449;29;20275;-83
2021/01/01 01:30:48;;;;;;;248.03;118.33;;;2.40;99.90;;;-146.47;100.00;66290.13;4901582;29;20252;-81
2021/01/01 01:33:34;;;;;;;231.60;112.73;;;2.50;99.90;;;-146.47;100.00;66290.13;4899652;29;20606;-82
2021/01/01 01:36:19;;;;;;;209.40;103.00;;;2.40;99.90;;;-146.47;100.00;66290.13;4895514;29;20257;-81
2021/01/01 01:39:05;;;;;;;210.27;103.33;;;2.50;99.90;;;-146.47;100.00;66290.13;4905419;29;20243;-82
2021/01/01 01:41:50;;;;;;;224.77;104.23;;;2.50;99.90;;;-146.47;100.00;66290.13;4899327;29;20216;-81
2021/01/01 01:44:36;;;;;;;220.07;109.10;;;2.50;99.90;;;-146.47;100.00;66290.13;4904081;29;20223;-81
2021/01/01 01:47:21;;;;;;;269.07;126.23;;;2.40;99.90;;;-146.47;100.00;66290.13;4904352;29;20659;-82
2021/01/01 01:50:09;;;;;;;247.23;117.97;;;2.50;99.90;;;-146.47;100.00;66290.13;4892256;29;20586;-82
2021/01/01 01:52:56;;;;;;;259.23;124.93;;;2.50;99.90;;;-146.47;100.00;66290.13;4903009;29;20525;-83
2021/01/01 01:55:41;;;;;;;273.20;129.73;;;2.40;99.90;;;-146.47;100.00;66290.13;4894166;29;20292;-81
2021/01/01 01:58:28;;;;;;;256.00;119.60;;;2.50;99.90;;;-146.47;100.00;66290.13;4892528;29;20207;-82
2021/01/01 02:01:14;;;;;;;254.83;125.23;;;2.40;99.90;;;-146.47;100.00;66290.13;4904334;29;20265;-81
2021/01/01 02:03:59;;;;;;;227.77;111.33;;;2.50;99.90;;;-146.47;100.00;66290.13;4903704;29;20243;-81
2021/01/01 02:06:45;;;;;;;229.90;110.13;;;2.50;99.90;;;-146.47;100.00;66290.13;4902796;29;20221;-82
2021/01/01 02:09:30;;;;;;;229.40;104.67;;;2.50;99.90;;;-146.47;100.00;66290.13;4901906;29;20722;-82
2021/01/01 02:12:16;;;;;;;206.57;99.10;;;2.50;99.90;;;-146.47;100.00;66290.13;4903505;29;20719;-81
2021/01/01 02:15:01;;;;;;;179.30;87.53;;;2.50;99.90;;;-146.47;100.00;66290.13;4903267;29;20236;-80
2021/01/01 02:17:48;;;;;;;167.77;83.90;;;2.40;99.90;;;-146.47;100.00;66290.13;4887077;29;20694;-81
2021/01/01 02:20:33;;;;;;;152.80;75.60;;;2.40;99.90;;;-146.47;100.00;66290.13;4904080;29;20228;-83
2021/01/01 02:23:19;;;;;;;169.13;79.97;;;2.50;99.90;;;-146.47;100.00;66290.13;4903264;29;20215;-81
2021/01/01 02:26:05;;;;;;;164.77;75.07;;;2.50;99.90;;;-146.47;100.00;66290.13;4904700;29;20235;-82
2021/01/01 02:28:52;;;;;;;159.83;81.17;;;2.40;99.90;;;-146.47;100.00;66290.13;4905756;29;20683;-82
2021/01/01 02:31:37;;;;;;;182.23;82.90;;;2.40;99.90;;;-146.47;100.00;66290.13;4897376;29;20219;-81
2021/01/01 02:34:22;;;;;;;186.07;85.47;;;2.40;99.90;;;-146.47;100.00;66290.13;4903349;29;20236;-81
2021/01/01 02:37:07;;;;;;;189.53;92.27;;;2.40;99.90;;;-146.47;100.00;66290.13;4904687;29;20208;-82
2021/01/01 02:39:53;;;;;;;216.90;102.97;;;2.40;99.90;;;-146.47;100.00;66290.13;4907874;29;20220;-80
2021/01/01 02:42:38;;;;;;;222.37;103.00;;;2.40;99.90;;;-146.47;100.00;66290.13;4897618;29;20328;-81
2021/01/01 02:45:24;;;;;;;231.70;108.73;;;2.40;99.90;;;-146.47;100.00;66290.13;4906986;29;20240;-81
2021/01/01 02:48:15;;;;;;;242.30;115.80;;;2.40;99.90;;;-146.47;100.00;66290.13;4906461;29;20706;-81
2021/01/01 02:51:00;;;;;;;230.43;112.50;;;2.40;99.90;;;-146.47;100.00;66290.13;4906731;29;20224;-80
2021/01/01 02:53:45;;;;;;;238.57;112.87;;;2.40;99.90;;;-146.47;100.00;66290.13;4918966;29;21254;-83
2021/01/01 02:56:31;;;;;;;241.13;113.20;;;2.40;99.90;;;-146.47;100.00;66290.13;4908713;29;20268;-80
2021/01/01 02:59:16;;;;;;;252.07;121.13;;;2.40;99.90;;;-146.47;100.00;66290.13;4896850;29;20899;-82
2021/01/01 03:02:02;;;;;;;222.07;110.37;;;2.30;99.90;;;-146.47;100.00;66290.13;4889617;29;20193;-82
2021/01/01 03:04:47;;;;;;;234.80;111.47;;;2.30;99.90;;;-146.47;100.00;66290.13;4906914;29;20236;-82
2021/01/01 03:07:32;;;;;;;217.73;104.47;;;2.30;99.90;;;-146.47;100.00;66290.13;4906309;29;20234;-82
2021/01/01 03:10:18;;;;;;;212.00;101.07;;;2.30;99.90;;;-146.47;100.00;66290.13;4903447;29;20249;-81
2021/01/01 03:13:05;;;;;;;200.93;99.93;;;2.20;99.90;;;-146.47;100.00;66290.13;4905773;29;20219;-80
2021/01/01 03:15:50;;;;;;;202.23;98.13;;;2.20;99.90;;;-146.47;100.00;66290.13;4904093;29;20248;-80
2021/01/01 03:18:35;;;;;;;218.73;103.87;;;2.20;99.90;;;-146.47;100.00;66290.13;4906132;29;20208;-81
2021/01/01 03:21:21;;;;;;;212.57;103.87;;;2.10;99.90;;;-146.47;100.00;66290.13;4907313;29;20208;-82
2021/01/01 03:24:07;;;;;;;209.90;102.70;;;2.10;99.90;;;-146.47;100.00;66290.13;4905627;29;20235;-82
2021/01/01 03:26:52;;;;;;;200.90;98.90;;;2.10;99.90;;;-146.47;100.00;66290.13;4905655;29;20216;-83
2021/01/01 03:29:38;;;;;;;213.97;102.43;;;2.00;99.90;;;-146.47;100.00;66290.13;4903077;29;20209;-81
2021/01/01 03:32:24;;;;;;;198.33;91.00;;;2.00;99.90;;;-146.47;100.00;66290.13;4898091;29;20269;-81
2021/01/01 03:35:10;;;;;;;181.77;94.37;;;1.90;99.90;;;-146.47;100.00;66290.13;4894146;29;20249;-81
2021/01/01 03:37:55;;;;;;;188.87;96.03;;;1.90;99.90;;;-146.47;100.00;66290.13;4905833;29;20219;-80
2021/01/01 03:40:41;;;;;;;211.90;102.67;;;1.90;99.90;;;-146.47;100.00;66290.13;4897859;29;20347;-83
2021/01/01 03:43:26;;;;;;;212.13;102.00;;;1.80;99.90;;;-146.47;100.00;66290.13;4900583;29;20260;-81
2021/01/01 03:46:12;;;;;;;208.03;98.83;;;1.80;99.90;;;-146.47;100.00;66290.13;4899467;29;20288;-82
2021/01/01 03:48:57;;;;;;;219.47;100.80;;;1.80;99.90;;;-146.47;100.00;66290.13;4900942;29;20732;-82
2021/01/01 03:51:42;;;;;;;210.40;100.13;;;1.70;99.90;;;-146.47;100.00;66290.13;4904011;29;20223;-82
2021/01/01 03:54:28;;;;;;;209.43;99.53;;;1.70;99.90;;;-146.47;100.00;66290.13;4897165;29;20232;-80
2021/01/01 03:57:13;;;;;;;214.93;105.17;;;1.70;99.90;;;-146.47;100.00;66290.13;4899645;29;20305;-81
2021/01/01 03:59:59;;;;;;;232.13;106.53;;;1.70;99.90;;;-146.47;100.00;66290.13;4892403;29;20284;-81
2021/01/01 04:02:45;;;;;;;230.43;110.10;;;1.60;99.90;;;-146.47;100.00;66290.13;4894157;29;20473;-81
2021/01/01 04:05:30;;;;;;;211.50;94.83;;;1.60;99.90;;;-146.47;100.00;66290.13;4903743;29;20364;-80
2021/01/01 04:08:15;;;;;;;214.07;100.17;;;1.60;99.90;;;-146.47;100.00;66290.13;4899530;29;20273;-80
2021/01/01 04:11:00;;;;;;;233.13;103.47;;;1.60;99.90;;;-146.47;100.00;66290.13;4892822;29;20253;-81
2021/01/01 04:13:45;;;;;;;210.33;96.73;;;1.60;99.90;;;-146.47;100.00;66290.13;4906370;29;20215;-82
2021/01/01 04:16:31;;;;;;;235.73;110.43;;;1.60;99.90;;;-146.47;100.00;66290.13;4911823;29;20224;-82
2021/01/01 04:19:17;;;;;;;248.03;113.43;;;1.60;99.90;;;-146.47;100.00;66290.13;4900585;29;20306;-81
2021/01/01 04:22:03;;;;;;;260.20;115.83;;;1.60;99.90;;;-146.47;100.00;66290.13;4894515;29;20203;-82
2021/01/01 04:24:47;;;;;;;215.10;97.57;;;1.60;99.90;;;-146.47;100.00;66290.13;4901761;29;20292;-81
2021/01/01 04:27:33;;;;;;;252.27;110.20;;;1.60;99.90;;;-146.47;100.00;66290.13;4901352;29;20221;-80
2021/01/01 04:30:22;;;;;;;276.30;120.13;;;1.60;99.90;;;-146.47;100.00;66290.13;4892081;29;20207;-81
2021/01/01 04:33:07;;;;;;;265.53;116.20;;;1.60;99.90;;;-146.47;100.00;66290.13;4897929;29;20584;-80
2021/01/01 04:35:53;;;;;;;247.03;111.17;;;1.70;99.90;;;-146.47;100.00;66290.13;4902923;29;20216;-81
2021/01/01 04:38:39;;;;;;;240.93;108.03;;;1.60;99.90;;;-146.47;100.00;66290.13;4887817;29;20287;-81
2021/01/01 04:41:24;;;;;;;234.60;108.70;;;1.70;99.90;;;-146.47;100.00;66290.13;4897883;29;20702;-80
2021/01/01 04:44:09;;;;;;;230.93;101.53;;;1.70;99.90;;;-146.47;100.00;66290.13;4902732;29;20288;-82
2021/01/01 04:46:59;;;;;;;237.60;105.07;;;1.70;99.90;;;-146.47;100.00;66290.13;4901603;29;20626;-81
2021/01/01 04:49:44;;;;;;;234.67;108.50;;;1.70;99.90;;;-146.47;100.00;66290.13;4902234;29;20257;-82
2021/01/01 04:52:33;;;;;;;238.37;108.27;;;1.70;99.90;;;-146.47;100.00;66290.13;4887533;29;20220;-81
2021/01/01 04:55:20;;;;;;;264.67;120.13;;;1.70;99.90;;;-146.47;100.00;66290.13;4894651;29;20249;-82
2021/01/01 04:58:06;;;;;;;249.93;115.97;;;1.70;99.90;;;-146.47;100.00;66290.13;4902309;29;20216;-82
2021/01/01 05:00:51;;;;;;;263.97;118.77;;;1.80;99.90;;;-146.47;100.00;66290.13;4895768;29;20319;-81
2021/01/01 05:03:36;;;;;;;260.57;117.47;;;1.70;99.90;;;-146.47;100.00;66290.13;4901749;29;20280;-81
2021/01/01 05:06:29;;;;;;;261.83;120.93;;;1.70;99.90;;;-146.47;100.00;66290.13;4903743;29;20236;-81
2021/01/01 05:09:16;;;;;;;265.13;122.37;;;1.70;99.90;;;-146.47;100.00;66290.13;4891922;29;20680;-81
2021/01/01 05:12:09;;;;;;;271.23;122.53;;;1.70;99.90;;;-146.47;100.00;66290.13;4903392;29;20280;-82
2021/01/01 05:14:54;;;;;;;279.13;128.03;;;1.70;99.90;;;-146.47;100.00;66290.13;4903238;29;20243;-81
2021/01/01 05:17:39;;;;;;;255.07;114.87;;;1.70;99.90;;;-146.47;100.00;66290.13;4895325;29;20658;-82
2021/01/01 05:20:27;;;;;;;299.93;135.77;;;1.70;99.90;;;-146.47;100.00;66290.13;4908535;29;20261;-81
2021/01/01 05:23:22;;;;;;;284.90;134.77;;;1.70;99.90;;;-146.47;100.00;66290.13;4894685;29;20208;-81
2021/01/01 05:26:13;;;;;;;293.93;132.27;;;1.70;99.90;;;-146.47;100.00;66290.13;4906042;29;20212;-80
2021/01/01 05:29:05;;;;;;;292.67;135.67;;;1.70;99.90;;;-146.47;100.00;66290.13;4906600;29;20213;-83
2021/01/01 05:31:51;;;;;;;289.73;131.23;;;1.70;99.90;;;-146.47;100.00;66290.13;4881359;29;20220;-81
2021/01/01 05:34:44;;;;;;;287.20;134.90;;;1.60;99.90;;;-146.47;100.00;66290.13;4898042;29;20260;-82
2021/01/01 05:37:32;;;;;;;312.90;144.10;;;1.60;99.90;;;-146.47;100.00;66290.13;4903802;29;20224;-81
2021/01/01 05:40:29;;;;;;;308.00;144.93;;;1.60;99.90;;;-146.47;100.00;66290.13;4901238;29;20230;-81
2021/01/01 05:43:21;;;;;;;307.70;136.73;;;1.60;99.90;;;-146.47;100.00;66290.13;4908554;29;20237;-81
2021/01/01 05:46:10;;;;;;;332.33;144.80;;;1.60;99.90;;;-146.47;100.00;66290.13;4908773;29;20758;-81
2021/01/01 05:49:00;;;;;;;305.83;140.17;;;1.60;99.90;;;-146.47;100.00;66290.13;4893620;29;20200;-80
2021/01/01 05:51:45;;;;;;;313.33;153.40;;;1.50;99.90;;;-146.47;100.00;66290.13;4903872;29;20348;-80
2021/01/01 05:54:30;;;;;;;321.17;141.23;;;1.50;99.90;;;-146.47;100.00;66290.13;4901509;29;20228;-82
2021/01/01 05:57:17;;;;;;;298.30;138.07;;;1.50;99.90;;;-146.47;100.00;66290.13;4889254;29;20251;-82
2021/01/01 06:00:06;;;;;;;296.43;133.77;;;1.50;99.90;;;-146.47;100.00;66290.13;4894218;29;20204;-81
2021/01/01 06:02:57;;;;;;;276.03;126.87;;;1.50;99.90;;;-146.47;100.00;66290.13;4902776;29;20628;-81
2021/01/01 06:05:45;;;;;;;293.80;130.33;;;1.50;99.90;;;-146.47;100.00;66290.13;4903046;29;20253;-82
2021/01/01 06:08:31;;;;;;;287.03;128.13;;;1.40;99.90;;;-146.47;100.00;66290.13;4897791;29;20213;-81
2021/01/01 06:11:29;;;;;;;275.33;125.73;;;1.40;99.90;;;-146.47;100.00;66290.13;4902737;29;20814;-80
2021/01/01 06:14:29;;;;;;;254.57;112.67;;;1.40;99.90;;;-146.47;100.00;66290.13;4891894;29;20227;-80
2021/01/01 06:17:22;;;;;;;241.27;108.87;;;1.40;99.90;;;-146.47;100.00;66290.13;4889376;29;20288;-81
2021/01/01 06:20:12;;;;;;;244.13;113.23;;;1.40;99.90;;;-146.47;100.00;66290.13;4894878;29;20228;-81
2021/01/01 06:23:02;;;;;;;235.30;100.43;;;1.40;99.90;;;-146.47;100.00;66290.13;4904663;29;20228;-81
2021/01/01 06:25:47;;;;;;;225.37;104.57;;;1.40;99.90;;;-146.47;100.00;66290.13;4904838;29;20257;-80
2021/01/01 06:28:36;;;;;;;219.33;98.57;;;1.40;99.90;;;-146.47;100.00;66290.13;4894407;29;20241;-80
2021/01/01 06:31:21;;;;;;;200.83;92.53;;;1.40;99.90;;;-146.47;100.00;66290.13;4903577;29;20260;-79
2021/01/01 06:34:23;;;;;;;214.20;96.03;;;1.40;99.90;;;-146.47;100.00;66290.13;4903903;29;20247;-80
2021/01/01 06:37:08;;;;;;;207.03;95.83;;;1.40;99.90;;;-146.47;100.00;66290.13;4893429;29;20224;-79
2021/01/01 06:39:54;;;;;;;193.37;88.77;;;1.30;99.90;;;-146.47;100.00;66290.13;4892692;29;20209;-81
2021/01/01 06:42:54;;;;;;;211.40;92.43;;;1.30;99.90;;;-146.47;100.00;66290.13;4903565;29;20228;-83
2021/01/01 06:45:42;;;;;;;196.93;88.43;;;1.40;99.90;;;-146.47;100.00;66290.13;4895225;29;20269;-82
2021/01/01 06:48:37;;;;;;;208.73;98.10;;;1.30;99.90;;;-146.47;100.00;66290.13;4913843;29;20211;-81
2021/01/01 06:51:23;;;;;;;191.63;84.37;;;1.40;99.90;;;-146.47;100.00;66290.13;4893335;29;20217;-81
2021/01/01 06:54:13;;;;;;;187.23;76.97;;;1.40;99.90;;;-146.47;100.00;66290.13;4893977;29;20232;-81
2021/01/01 06:57:05;;;;;;;185.60;81.43;;;1.50;99.90;;;-146.47;100.00;66290.13;4897653;29;20208;-80
2021/01/01 06:59:50;;;;;;;159.17;68.60;;;1.40;99.90;;;-146.47;100.00;66290.13;4906382;29;20226;-81
2021/01/01 07:02:35;;;;;;;182.60;81.10;;;1.40;99.90;;;-146.47;100.00;66290.13;4901454;29;20209;-81
2021/01/01 07:05:26;;;;;;;163.90;75.63;;;1.40;99.90;;;-146.47;100.00;66290.13;4888831;29;20235;-81
2021/01/01 07:08:43;;;;;;;147.73;70.00;;;1.40;99.90;;;-146.47;100.00;66290.13;4889336;29;20273;-81
2021/01/01 07:11:39;;;;;;;158.17;66.30;;;1.40;99.90;;;-146.47;100.00;66290.13;4894895;29;20224;-81
2021/01/01 07:14:30;;;;;;;167.70;72.43;;;1.40;99.90;;;-146.47;100.00;66290.13;4904467;29;20280;-81
2021/01/01 07:17:15;;;;;;;157.33;67.20;;;1.40;99.90;;;-146.47;100.00;66290.13;4904543;29;20221;-81
2021/01/01 07:20:01;;;;;;;158.77;68.03;;;1.40;99.90;;;-146.47;100.00;66290.13;4893797;29;20207;-80
2021/01/01 07:22:46;;;;;;;150.73;66.17;;;1.40;99.90;;;-146.47;100.00;66290.13;4924975;28;20219;-79
2021/01/01 07:25:37;;;;;;;154.33;67.43;;;1.40;99.90;;;-146.47;100.00;66290.13;4924941;29;20212;-80
2021/01/01 07:28:24;;;;;;;149.80;62.17;;;1.40;99.90;;;-146.47;100.00;66290.13;4912356;29;20188;-80
2021/01/01 07:31:15;;;;;;;151.87;67.90;;;1.40;99.90;;;-146.47;100.00;66290.13;4914490;29;20333;-81
2021/01/01 07:34:10;;;;;;;144.80;67.73;;;1.40;99.90;;;-146.47;100.00;66290.13;4901538;29;20227;-80
2021/01/01 07:37:01;;;;;;;157.97;67.17;;;1.40;99.90;;;-146.47;100.00;66290.13;4890290;29;20240;-80
2021/01/01 07:39:47;;;;;;;144.00;65.53;;;1.40;99.90;;;-146.47;100.00;66290.13;4898824;29;20213;-80
2021/01/01 07:42:48;;;;;;;145.43;65.63;;;1.40;99.90;;;-146.47;100.00;66290.13;4893797;29;20220;-81
2021/01/01 07:45:33;;;;;;;160.57;68.07;;;1.50;99.90;;;-146.47;100.00;66290.13;4894144;29;20243;-80
2021/01/01 07:48:18;;;;;;;149.00;68.37;;;1.50;99.90;;;-146.47;100.00;66290.13;4899568;29;20325;-80
2021/01/01 07:51:06;;;;;;;153.50;63.07;;;1.50;99.90;;;-146.47;100.00;66290.13;4896147;29;20255;-80
2021/01/01 07:53:59;;;;;;;171.53;68.37;;;1.50;99.90;;;-146.47;100.00;66290.13;4897738;29;20236;-82
2021/01/01 07:56:44;;;;;;;193.50;70.87;;;1.50;99.90;;;-146.47;100.00;66290.13;4899310;29;20723;-80
2021/01/01 07:59:32;;;;;;;181.93;77.03;;;1.60;99.90;;;-146.47;100.00;66290.13;4896039;29;20273;-80
2021/01/01 08:02:17;;;;;;;188.43;75.07;;;1.60;99.90;;;-146.47;100.00;66290.13;4901350;29;20341;-81
2021/01/01 08:05:05;;;;;;;193.00;76.10;;;1.70;99.90;;;-146.47;100.00;66290.13;4896322;29;20263;-82
2021/01/01 08:07:50;;;;;;;189.70;78.10;;;1.80;99.90;;;-146.47;100.00;66290.13;4899417;29;20261;-80
2021/01/01 08:10:35;;;;;;;170.33;71.40;;;1.80;99.90;;;-146.47;100.00;66290.13;4899111;29;20219;-80
2021/01/01 08:13:22;;;;;;;174.80;72.27;;;1.90;99.90;;;-146.47;100.00;66290.13;4889919;29;20437;-80
2021/01/01 08:16:13;;;;;;;135.20;54.70;;;1.90;99.90;;;-146.47;100.00;66290.13;4899918;29;20295;-79
2021/01/01 08:18:58;;;;;;;152.40;62.80;;;1.90;99.90;;;-146.47;100.00;66290.13;4899220;29;20694;-79
2021/01/01 08:21:45;;;;;;;154.10;64.90;;;2.00;99.90;;;-146.47;100.00;66290.13;4894210;29;20240;-81
2021/01/01 08:24:38;;;;;;;144.20;59.93;;;2.00;99.90;;;-146.47;100.00;66290.13;4900825;29;20284;-80
2021/01/01 08:27:25;;;;;;;146.70;62.57;;;2.00;99.90;;;-146.47;100.00;66290.13;4891843;29;20209;-82
2021/01/01 08:30:12;;;;;;;157.37;64.23;;;2.10;99.90;;;-146.47;100.00;66290.13;4891820;29;20774;-80
2021/01/01 08:32:59;;;;;;;144.40;61.73;;;2.10;99.90;;;-146.47;100.00;66290.13;4890143;29;20370;-81
2021/01/01 08:35:45;;;;;;;148.83;63.33;;;2.20;99.90;;;-146.47;100.00;66290.13;4891669;29;20340;-80
2021/01/01 08:38:31;;;;;;;136.40;58.83;;;2.30;99.90;;;-146.47;100.00;66290.13;4888645;29;20805;-81
2021/01/01 08:41:18;;;;;;;162.03;69.93;;;2.30;99.90;;;-146.47;100.00;66290.13;4896144;29;20235;-81
2021/01/01 08:44:09;;;;;;;121.10;51.77;;;2.40;99.90;;;-146.47;100.00;66290.13;4893873;29;20254;-81
2021/01/01 08:47:02;;;;;;;124.47;52.07;;;2.40;99.90;;;-146.47;100.00;66290.13;4897090;29;20220;-81
2021/01/01 08:49:48;;;;;;;163.83;68.87;;;2.50;99.90;;;-146.47;100.00;66290.13;4890358;29;20217;-80
2021/01/01 08:52:34;;;;;;;161.77;63.60;;;2.50;99.90;;;-146.47;100.00;66290.13;4899985;29;20729;-80
2021/01/01 08:55:20;;;;;;;174.97;70.07;;;2.60;99.90;;;-146.47;100.00;66290.13;4905518;29;20586;-81
2021/01/01 08:58:13;;;;;;;174.60;70.13;;;2.70;99.90;;;-146.47;100.00;66290.13;4901907;29;20642;-81
2021/01/01 09:01:15;;;;;;;165.47;70.47;;;2.80;99.90;;;-146.47;100.00;66290.13;4898901;29;20215;-82
2021/01/01 09:04:02;;;;;;;186.23;72.87;;;2.90;99.90;;;-146.47;100.00;66290.13;4881791;29;587575;-81
2021/01/01 09:07:00;;;;;;;202.70;78.20;;;3.00;99.90;;;-146.47;100.00;66290.13;4901955;29;20213;-81
2021/01/01 09:09:45;;;;;;;203.17;80.47;;;3.20;99.90;;;-146.47;100.00;66290.13;4907029;29;20216;-82
2021/01/01 09:12:32;;;;;;;217.23;80.23;;;3.30;99.90;;;-146.47;100.00;66290.13;4899716;29;20265;-82
2021/01/01 09:15:28;;;;;;;171.70;73.57;;;3.50;99.90;;;-146.47;100.00;66290.13;4899544;29;20208;-82
2021/01/01 09:18:14;;;;;;;174.67;70.67;;;3.70;99.90;;;-146.47;100.00;66290.13;4892987;29;20204;-81
2021/01/01 09:21:10;;;;;;;131.73;62.97;;;3.90;99.90;;;-146.47;100.00;66290.13;4898626;29;20249;-81
2021/01/01 09:23:56;;;;;;;135.70;61.13;;;4.10;99.90;;;-146.47;100.00;66290.13;4909807;29;20243;-81
2021/01/01 09:26:41;;;;;;;140.33;65.30;;;4.20;99.90;;;-146.47;100.00;66290.13;4889995;29;20212;-80
2021/01/01 09:29:28;;;;;;;132.20;62.57;;;4.30;99.90;;;-146.47;100.00;66290.13;4899222;29;20228;-80
2021/01/01 09:32:13;;;;;;;100.80;53.43;;;4.40;99.90;;;-146.47;100.00;66290.13;4886852;29;20305;-81
2021/01/01 09:34:58;;;;;;;100.10;52.90;;;4.60;99.90;;;-146.47;100.00;66290.13;4889951;29;20227;-81
2021/01/01 09:37:49;;;;;;;84.97;45.47;;;4.80;99.90;;;-146.47;100.00;66290.13;4891718;29;20238;-79
2021/01/01 09:40:35;;;;;;;69.77;40.90;;;4.90;99.90;;;-146.47;100.00;66290.13;4891158;29;20213;-82
2021/01/01 09:43:21;;;;;;;66.97;40.10;;;5.00;99.90;;;-146.47;100.00;66290.13;4895672;29;20280;-82
2021/01/01 09:46:06;;;;;;;68.03;39.33;;;5.10;99.90;;;-146.47;100.00;66290.13;4893542;29;20231;-82
2021/01/01 09:48:51;;;;;;;61.93;35.67;;;5.10;99.90;;;-146.47;100.00;66290.13;4900109;29;20215;-81
2021/01/01 09:51:39;;;;;;;64.33;36.43;;;5.10;99.90;;;-146.47;100.00;66290.13;4893363;29;20304;-83
2021/01/01 09:54:24;;;;;;;60.10;35.80;;;5.10;99.90;;;-146.47;100.00;66290.13;4892969;29;20284;-82
2021/01/01 09:57:10;;;;;;;58.87;33.37;;;5.20;99.90;;;-146.47;100.00;66290.13;4899746;29;20215;-82
2021/01/01 09:59:56;;;;;;;61.07;36.33;;;5.20;99.90;;;-146.47;100.00;66290.13;4895696;29;20212;-82
2021/01/01 10:02:42;;;;;;;55.40;34.47;;;5.30;99.90;;;-146.47;100.00;66290.13;4891919;29;20269;-81
2021/01/01 10:05:28;;;;;;;54.23;33.73;;;5.30;99.90;;;-146.47;100.00;66290.13;4898155;29;20243;-82
2021/01/01 10:08:14;;;;;;;47.40;29.67;;;5.30;99.90;;;-146.47;100.00;66290.13;4901414;29;20272;-83
2021/01/01 10:10:59;;;;;;;52.13;31.67;;;5.40;99.90;;;-146.47;100.00;66290.13;4902645;29;20282;-83
2021/01/01 10:13:45;;;;;;;52.43;30.17;;;5.40;99.90;;;-146.47;100.00;66290.13;4897163;29;20570;-80
2021/01/01 10:16:30;;;;;;;51.83;29.60;;;5.50;99.90;;;-146.47;100.00;66290.13;4891483;29;20216;-81
2021/01/01 10:19:16;;;;;;;47.17;26.90;;;5.50;99.90;;;-146.47;100.00;66290.13;4892461;29;20216;-81
2021/01/01 10:22:01;;;;;;;47.17;29.57;;;5.60;99.90;;;-146.47;100.00;66290.13;4893888;29;20598;-80
2021/01/01 10:24:47;;;;;;;53.27;31.87;;;5.70;99.90;;;-146.47;100.00;66290.13;4890209;29;20244;-81
2021/01/01 10:27:35;;;;;;;51.23;30.93;;;5.80;99.90;;;-146.47;100.00;66290.13;4890047;29;20216;-81
2021/01/01 10:30:22;;;;;;;46.23;28.93;;;5.90;99.90;;;-146.47;100.00;66290.13;4896911;29;20258;-80
2021/01/01 10:33:07;;;;;;;42.03;25.90;;;6.00;99.90;;;-146.47;100.00;66290.13;4897419;29;20231;-80
2021/01/01 10:35:53;;;;;;;37.37;23.53;;;6.40;99.90;;;-146.47;100.00;66290.13;4891264;29;20300;-82
2021/01/01 10:38:38;;;;;;;33.43;19.73;;;6.70;99.90;;;-146.47;100.00;66290.13;4888296;29;20212;-81
2021/01/01 10:41:23;;;;;;;37.83;24.43;;;7.10;99.90;;;-146.47;100.00;66290.13;4889903;29;20244;-81
2021/01/01 10:44:08;;;;;;;34.63;22.13;;;7.30;99.90;;;-146.47;100.00;66290.13;4892962;29;20247;-81
2021/01/01 10:46:54;;;;;;;34.57;20.43;;;7.60;99.90;;;-146.47;100.00;66290.13;4887441;29;20216;-82
2021/01/01 10:49:40;;;;;;;31.03;18.83;;;8.00;99.90;;;-146.47;100.00;66290.13;4891260;29;20375;-81
2021/01/01 10:52:25;;;;;;;26.57;16.00;;;8.30;99.90;;;-146.47;100.00;66290.13;4892771;29;20299;-82
2021/01/01 10:55:12;;;;;;;22.20;14.53;;;8.60;99.90;;;-146.47;100.00;66290.13;4890875;29;20228;-83
2021/01/01 10:57:57;;;;;;;22.03;14.20;;;8.80;99.90;;;-146.47;100.00;66290.13;4889557;29;20216;-80
2021/01/01 11:00:43;;;;;;;22.83;14.13;;;9.00;99.90;;;-146.47;100.00;66290.13;4889010;29;20213;-82
2021/01/01 11:03:29;;;;;;;19.10;12.53;;;9.10;99.90;;;-146.47;100.00;66290.13;4890513;29;20264;-81
2021/01/01 11:06:15;;;;;;;20.67;13.43;;;9.20;99.90;;;-146.47;100.00;66290.13;4898047;29;20597;-81